createdAt,value
2023-05-23T00:03:19.781Z,45.84
2023-05-23T00:10:03.540Z,46.14
2023-05-23T00:12:53.603Z,45.94
2023-05-23T00:39:08.872Z,46.19
2023-05-23T01:05:50.199Z,45.68
2023-05-23T01:15:11.754Z,44.23
2023-05-23T01:17:46.342Z,43.91
2023-05-23T01:20:19.530Z,43.65
2023-05-23T01:23:03.511Z,43.89
2023-05-23T01:25:49.071Z,43.88
2023-05-23T01:28:21.597Z,43.60
2023-05-23T01:30:50.653Z,43.38
2023-05-23T01:33:19.809Z,43.00
2023-05-23T01:35:48.789Z,43.10
2023-05-23T01:38:17.805Z,43.08
2023-05-23T01:40:55.626Z,42.62
2023-05-23T01:43:28.095Z,42.70
2023-05-23T01:46:00.032Z,42.70
2023-05-23T01:48:29.396Z,42.70
2023-05-23T01:50:58.778Z,42.69
2023-05-23T01:53:27.881Z,42.51
2023-05-23T01:55:57.367Z,42.70
2023-05-23T01:58:26.401Z,42.81
2023-05-23T02:08:24.562Z,43.24
2023-05-23T02:11:28.984Z,42.57
2023-05-23T02:34:28.926Z,42.91
2023-05-23T02:51:56.366Z,40.67
2023-05-23T02:54:43.009Z,40.35
2023-05-23T02:57:21.608Z,40.15
2023-05-23T03:22:29.164Z,38.99
2023-05-23T03:28:26.072Z,39.02
2023-05-23T03:31:16.044Z,38.94
2023-05-23T03:36:48.923Z,38.79
2023-05-23T03:39:29.669Z,38.87
2023-05-23T03:42:03.712Z,38.90
2023-05-23T03:44:38.088Z,38.99
2023-05-23T03:47:18.650Z,38.75
2023-05-23T03:50:03.138Z,38.46
2023-05-23T03:52:38.420Z,38.68
2023-05-23T03:55:34.488Z,38.33
2023-05-23T03:58:29.612Z,38.46
2023-05-23T04:02:03.838Z,38.50
2023-05-23T04:07:42.178Z,38.64
2023-05-23T04:10:17.186Z,38.65
2023-05-23T04:12:49.670Z,38.38
2023-05-23T04:21:23.000Z,38.34
2023-05-23T04:24:06.830Z,38.09
2023-05-23T04:26:56.998Z,37.87
2023-05-23T04:32:32.291Z,37.72
2023-05-23T04:35:13.547Z,37.76
2023-05-23T04:37:56.303Z,37.70
2023-05-23T04:40:47.292Z,37.76
2023-05-23T04:43:23.834Z,37.85
2023-05-23T04:45:57.457Z,37.85
2023-05-23T04:48:40.651Z,37.96
2023-05-23T05:10:49.233Z,37.38
2023-05-23T05:13:23.850Z,37.37
2023-05-23T05:15:58.557Z,37.16
2023-05-23T05:18:29.304Z,37.03
2023-05-23T05:21:01.708Z,36.94
2023-05-23T05:23:35.537Z,37.04
2023-05-23T05:26:20.766Z,36.93
2023-05-23T05:28:53.378Z,36.95
2023-05-23T05:31:25.636Z,36.91
2023-05-23T05:33:54.728Z,36.99
2023-05-23T05:36:28.695Z,36.91
2023-05-23T05:39:00.359Z,37.10
2023-05-23T05:41:31.825Z,37.19
2023-05-23T05:44:00.962Z,36.88
2023-05-23T05:46:32.291Z,37.22
2023-05-23T05:49:02.300Z,37.14
2023-05-23T05:51:43.404Z,37.24
2023-05-23T05:54:35.812Z,37.55
2023-05-23T05:57:38.179Z,37.66
2023-05-23T06:06:57.249Z,37.91
2023-05-23T06:09:32.108Z,38.18
2023-05-23T06:12:25.306Z,38.21
2023-05-23T06:17:59.612Z,38.30
2023-05-23T06:20:51.787Z,38.26
2023-05-23T06:26:25.375Z,38.29
2023-05-23T06:29:35.200Z,38.06
2023-05-23T06:32:08.111Z,38.31
2023-05-23T06:34:49.275Z,38.14
2023-05-23T06:37:19.644Z,38.12
2023-05-23T06:40:01.609Z,38.37
2023-05-23T06:42:30.845Z,38.07
2023-05-23T06:45:02.811Z,38.14
2023-05-23T06:47:37.280Z,38.10
2023-05-23T06:50:09.615Z,38.05
2023-05-23T06:52:41.881Z,38.11
2023-05-23T06:55:11.432Z,38.10
2023-05-23T06:57:57.744Z,38.12
2023-05-23T07:00:32.698Z,37.90
2023-05-23T07:03:07.802Z,38.04
2023-05-23T07:05:45.366Z,38.10
2023-05-23T07:08:14.759Z,37.98
2023-05-23T07:10:47.036Z,38.31
2023-05-23T07:13:16.160Z,38.19
2023-05-23T07:15:45.240Z,38.42
2023-05-23T07:18:29.226Z,38.44
2023-05-23T07:20:58.267Z,38.50
2023-05-23T07:23:27.388Z,38.61
2023-05-23T07:26:02.339Z,38.58
2023-05-23T07:28:37.223Z,38.66
2023-05-23T07:31:22.575Z,38.72
2023-05-23T07:34:00.877Z,38.78
2023-05-23T07:36:31.107Z,38.71
2023-05-23T07:39:06.094Z,38.84
2023-05-23T07:41:44.129Z,39.00
2023-05-23T07:44:16.205Z,38.75
2023-05-23T07:46:48.681Z,38.93
2023-05-23T07:49:21.180Z,39.22
2023-05-23T07:51:56.529Z,39.01
2023-05-23T07:54:42.528Z,39.10
2023-05-23T07:57:18.218Z,39.42
2023-05-23T08:00:10.625Z,39.37
2023-05-23T08:03:12.907Z,39.52
2023-05-23T08:05:49.708Z,39.78
2023-05-23T08:08:28.053Z,39.48
2023-05-23T08:11:10.225Z,39.65
2023-05-23T08:13:39.426Z,39.77
2023-05-23T08:16:13.941Z,39.74
2023-05-23T08:18:49.441Z,39.97
2023-05-23T08:21:21.786Z,39.89
2023-05-23T08:23:51.170Z,40.04
2023-05-23T08:26:23.343Z,40.14
2023-05-23T08:28:55.831Z,40.10
2023-05-23T08:31:39.310Z,40.07
2023-05-23T08:34:19.035Z,40.35
2023-05-23T08:36:53.950Z,40.49
2023-05-23T08:39:25.797Z,40.26
2023-05-23T08:41:57.746Z,40.50
2023-05-23T08:44:32.520Z,40.66
2023-05-23T08:47:16.216Z,40.87
2023-05-23T08:49:45.989Z,40.88
2023-05-23T08:52:15.262Z,40.55
2023-05-23T08:54:44.515Z,40.87
2023-05-23T08:57:13.635Z,41.17
2023-05-23T08:59:51.717Z,41.11
2023-05-23T09:02:26.468Z,41.13
2023-05-23T09:05:05.245Z,41.11
2023-05-23T09:07:34.913Z,40.96
2023-05-23T09:10:08.794Z,40.84
2023-05-23T09:12:43.583Z,41.03
2023-05-23T09:15:15.866Z,40.90
2023-05-23T09:17:45.328Z,41.07
2023-05-23T09:20:16.152Z,41.05
2023-05-23T09:22:51.270Z,40.88
2023-05-23T09:25:22.985Z,41.12
2023-05-23T09:28:01.165Z,41.14
2023-05-23T09:30:30.624Z,41.19
2023-05-23T09:33:05.862Z,41.09
2023-05-23T09:35:38.059Z,40.96
2023-05-23T09:38:10.755Z,41.21
2023-05-23T09:40:42.749Z,40.99
2023-05-23T09:43:12.055Z,40.83
2023-05-23T09:45:46.163Z,40.93
2023-05-23T09:48:15.717Z,40.79
2023-05-23T09:50:50.334Z,40.89
2023-05-23T09:53:29.530Z,40.84
2023-05-23T09:56:08.291Z,40.78
2023-05-23T09:58:40.558Z,40.78
2023-05-23T10:01:12.855Z,40.95
2023-05-23T10:04:04.778Z,40.70
2023-05-23T10:06:47.892Z,41.04
2023-05-23T10:09:22.541Z,41.19
2023-05-23T10:12:00.824Z,41.06
2023-05-23T10:14:32.357Z,41.07
2023-05-23T10:17:20.958Z,40.83
2023-05-23T10:19:56.838Z,41.19
2023-05-23T10:22:28.704Z,41.17
2023-05-23T10:25:08.421Z,41.04
2023-05-23T10:27:37.591Z,41.31
2023-05-23T10:30:07.404Z,41.28
2023-05-23T10:32:37.450Z,41.09
2023-05-23T10:35:09.954Z,41.29
2023-05-23T10:38:04.756Z,41.02
2023-05-23T10:40:34.470Z,41.40
2023-05-23T10:43:09.014Z,41.57
2023-05-23T10:45:59.751Z,41.53
2023-05-23T10:48:36.646Z,41.69
2023-05-23T10:51:08.860Z,41.76
2023-05-23T10:53:39.166Z,41.89
2023-05-23T10:56:11.950Z,42.01
2023-05-23T10:58:44.716Z,42.08
2023-05-23T11:01:19.711Z,41.78
2023-05-23T11:03:52.016Z,41.48
2023-05-23T11:06:53.788Z,41.49
2023-05-23T11:09:23.876Z,41.71
2023-05-23T11:11:57.824Z,41.97
2023-05-23T11:14:42.666Z,41.35
2023-05-23T11:17:27.059Z,41.80
2023-05-23T11:20:09.021Z,41.43
2023-05-23T11:22:41.654Z,41.83
2023-05-23T11:25:13.939Z,41.52
2023-05-23T11:27:43.561Z,41.88
2023-05-23T11:30:25.145Z,41.73
2023-05-23T11:33:05.622Z,42.36
2023-05-23T11:35:37.050Z,42.16
2023-05-23T11:38:07.373Z,42.34
2023-05-23T11:40:37.534Z,42.50
2023-05-23T11:43:23.305Z,42.44
2023-05-23T11:46:01.194Z,42.57
2023-05-23T11:48:39.744Z,42.44
2023-05-23T11:51:08.928Z,42.33
2023-05-23T11:53:50.941Z,42.50
2023-05-23T11:56:24.432Z,42.71
2023-05-23T11:58:56.612Z,42.67
2023-05-23T12:01:35.537Z,42.58
2023-05-23T12:04:11.516Z,42.56
2023-05-23T12:06:44.199Z,42.57
2023-05-23T12:09:17.116Z,42.57
2023-05-23T12:11:47.146Z,42.75
2023-05-23T12:14:20.375Z,42.59
2023-05-23T12:16:55.213Z,42.68
2023-05-23T12:19:24.399Z,42.45
2023-05-23T12:21:53.415Z,42.63
2023-05-23T12:24:26.132Z,42.71
2023-05-23T12:27:00.971Z,42.91
2023-05-23T12:29:41.646Z,42.75
2023-05-23T12:32:25.850Z,42.78
2023-05-23T12:34:58.276Z,42.65
2023-05-23T12:37:30.096Z,42.73
2023-05-23T12:40:01.773Z,43.05
2023-05-23T12:42:30.963Z,42.90
2023-05-23T12:45:00.443Z,42.92
2023-05-23T12:47:32.494Z,42.86
2023-05-23T12:50:13.413Z,42.84
2023-05-23T12:52:42.886Z,43.05
2023-05-23T12:55:16.171Z,42.93
2023-05-23T12:57:48.035Z,42.96
2023-05-23T13:00:22.418Z,42.92
2023-05-23T13:02:52.058Z,42.73
2023-05-23T13:05:23.312Z,42.86
2023-05-23T13:08:05.327Z,42.69
2023-05-23T13:10:37.514Z,42.90
2023-05-23T13:13:07.869Z,43.10
2023-05-23T13:15:36.991Z,42.77
2023-05-23T13:20:50.521Z,43.01
2023-05-23T13:23:40.353Z,42.98
2023-05-23T13:26:10.371Z,42.97
2023-05-23T13:28:42.019Z,43.18
2023-05-23T13:31:25.166Z,43.07
2023-05-23T13:33:54.290Z,43.11
2023-05-23T13:36:24.312Z,43.15
2023-05-23T13:38:53.704Z,43.25
2023-05-23T13:41:26.036Z,43.38
2023-05-23T13:43:55.157Z,43.20
2023-05-23T13:46:24.514Z,43.12
2023-05-23T13:48:55.846Z,43.15
2023-05-23T13:51:24.922Z,43.27
2023-05-23T13:53:54.129Z,43.14
2023-05-23T13:56:26.284Z,43.29
2023-05-23T13:59:00.918Z,43.12
2023-05-23T14:01:32.317Z,43.22
2023-05-23T14:04:06.715Z,43.33
2023-05-23T14:06:36.373Z,43.49
2023-05-23T14:09:08.532Z,43.32
2023-05-23T14:11:46.293Z,43.38
2023-05-23T14:14:28.811Z,43.37
2023-05-23T14:17:01.341Z,43.39
2023-05-23T14:19:30.660Z,43.35
2023-05-23T14:21:59.823Z,43.49
2023-05-23T14:24:39.426Z,43.39
2023-05-23T14:27:11.632Z,43.61
2023-05-23T14:29:49.874Z,43.78
2023-05-23T14:35:08.289Z,43.75
2023-05-23T14:37:37.620Z,43.73
2023-05-23T14:40:10.396Z,43.91
2023-05-23T14:42:42.141Z,43.74
2023-05-23T14:45:15.282Z,43.74
2023-05-23T14:47:46.202Z,43.70
2023-05-23T14:50:18.266Z,43.89
2023-05-23T14:52:48.195Z,43.78
2023-05-23T14:55:18.052Z,44.01
2023-05-23T14:57:52.407Z,43.95
2023-05-23T15:00:27.512Z,43.89
2023-05-23T15:02:58.867Z,44.11
2023-05-23T15:05:28.030Z,44.13
2023-05-23T15:08:03.051Z,44.20
2023-05-23T15:10:37.034Z,43.96
2023-05-23T15:13:09.848Z,44.01
2023-05-23T15:15:44.852Z,44.26
2023-05-23T15:18:27.869Z,44.14
2023-05-23T15:21:10.903Z,44.02
2023-05-23T15:24:08.687Z,44.20
2023-05-23T15:26:44.029Z,44.16
2023-05-23T15:29:25.504Z,44.22
2023-05-23T15:32:06.023Z,44.10
2023-05-23T15:34:35.209Z,44.21
2023-05-23T15:37:07.445Z,44.10
2023-05-23T15:39:43.977Z,44.01
2023-05-23T15:42:27.503Z,44.18
2023-05-23T15:44:59.503Z,44.21
2023-05-23T15:47:33.921Z,44.12
2023-05-23T15:50:17.528Z,44.20
2023-05-23T15:52:54.609Z,44.32
2023-05-23T15:55:26.969Z,44.19
2023-05-23T15:58:03.492Z,44.03
2023-05-23T16:00:34.709Z,44.21
2023-05-23T16:03:04.041Z,44.33
2023-05-23T16:05:33.513Z,44.20
2023-05-23T16:08:17.392Z,44.13
2023-05-23T16:10:55.634Z,44.43
2023-05-23T16:13:25.022Z,44.13
2023-05-23T16:16:06.544Z,44.07
2023-05-23T16:18:35.961Z,44.19
2023-05-23T16:21:07.323Z,44.27
2023-05-23T16:23:36.417Z,44.16
2023-05-23T16:26:11.625Z,44.25
2023-05-23T16:28:45.511Z,44.19
2023-05-23T16:31:18.394Z,44.32
2023-05-23T16:33:47.963Z,44.53
2023-05-23T16:36:27.919Z,44.32
2023-05-23T16:39:07.331Z,44.45
2023-05-23T16:41:36.594Z,44.35
2023-05-23T16:44:05.974Z,44.29
2023-05-23T16:46:37.158Z,44.51
2023-05-23T16:49:15.085Z,44.37
2023-05-23T16:51:55.654Z,44.38
2023-05-23T16:54:31.736Z,44.58
2023-05-23T16:57:08.927Z,44.49
2023-05-23T16:59:42.268Z,44.42
2023-05-23T17:02:15.357Z,44.54
2023-05-23T17:04:57.311Z,44.57
2023-05-23T17:07:26.449Z,44.44
2023-05-23T17:09:55.750Z,44.70
2023-05-23T17:12:24.927Z,44.62
2023-05-23T17:15:02.807Z,44.66
2023-05-23T17:17:44.112Z,44.83
2023-05-23T17:20:23.325Z,44.55
2023-05-23T17:22:56.020Z,44.86
2023-05-23T17:25:28.464Z,44.61
2023-05-23T17:28:00.585Z,44.67
2023-05-23T17:30:32.895Z,44.83
2023-05-23T17:33:10.927Z,44.87
2023-05-23T17:35:55.632Z,45.04
2023-05-23T17:38:27.770Z,44.99
2023-05-23T17:40:56.904Z,45.05
2023-05-23T17:43:28.749Z,45.10
2023-05-23T17:46:05.156Z,44.99
2023-05-23T17:48:48.110Z,45.12
2023-05-23T17:51:20.238Z,44.98
2023-05-23T17:53:53.171Z,44.90
2023-05-23T17:56:26.443Z,45.08
2023-05-23T17:58:55.507Z,45.21
2023-05-23T18:01:28.710Z,45.13
2023-05-23T18:03:58.061Z,45.20
2023-05-23T18:06:30.975Z,45.23
2023-05-23T18:09:00.219Z,45.09
2023-05-23T18:11:32.305Z,45.06
2023-05-23T18:14:04.661Z,45.24
2023-05-23T18:16:33.881Z,45.36
2023-05-23T18:19:03.252Z,45.26
2023-05-23T18:21:33.864Z,45.36
2023-05-23T18:24:06.806Z,45.22
2023-05-23T18:26:35.956Z,45.25
2023-05-23T18:29:06.582Z,45.33
2023-05-23T18:31:41.369Z,45.20
2023-05-23T18:34:20.120Z,45.39
2023-05-23T18:36:54.968Z,45.41
2023-05-23T18:39:30.045Z,45.33
2023-05-23T18:41:59.640Z,45.25
2023-05-23T18:44:28.939Z,45.29
2023-05-23T18:46:58.512Z,45.50
2023-05-23T18:49:29.899Z,45.43
2023-05-23T18:52:00.982Z,45.35
2023-05-23T18:54:30.275Z,45.45
2023-05-23T18:57:01.324Z,45.50
2023-05-23T18:59:32.164Z,45.31
2023-05-23T19:02:06.598Z,45.48
2023-05-23T19:04:41.572Z,45.68
2023-05-23T19:07:11.016Z,45.61
2023-05-23T19:09:40.218Z,45.56
2023-05-23T19:12:09.442Z,45.60
2023-05-23T19:14:47.710Z,45.65
2023-05-23T19:17:19.501Z,45.45
2023-05-23T19:19:51.302Z,45.49
2023-05-23T19:22:23.606Z,45.36
2023-05-23T19:24:57.528Z,45.52
2023-05-23T19:27:26.666Z,45.54
2023-05-23T19:29:55.759Z,45.32
2023-05-23T19:32:25.214Z,45.52
2023-05-23T19:35:00.186Z,45.33
2023-05-23T19:37:29.481Z,45.34
2023-05-23T19:40:00.323Z,45.50
2023-05-23T19:42:32.317Z,45.35
2023-05-23T19:45:07.192Z,45.58
2023-05-23T19:47:41.263Z,45.50
2023-05-23T19:50:12.489Z,45.60
2023-05-23T19:52:42.060Z,45.69
2023-05-23T19:55:13.784Z,45.54
2023-05-23T19:57:43.343Z,45.62
2023-05-23T20:00:12.760Z,45.68
2023-05-23T20:02:42.019Z,45.48
2023-05-23T20:05:11.329Z,45.71
2023-05-23T20:07:44.186Z,45.64
2023-05-23T20:10:18.172Z,45.65
2023-05-23T20:12:49.395Z,45.71
2023-05-23T20:15:31.288Z,45.64
2023-05-23T20:18:08.191Z,45.55
2023-05-23T20:20:42.849Z,45.66
2023-05-23T20:23:14.327Z,45.74
2023-05-23T20:25:49.127Z,45.81
2023-05-23T20:28:27.151Z,45.84
2023-05-23T20:31:05.090Z,45.83
2023-05-23T20:33:36.107Z,45.81
2023-05-23T20:36:08.348Z,45.75
2023-05-23T20:38:40.946Z,45.78
2023-05-23T20:41:10.076Z,45.83
2023-05-23T20:43:44.892Z,45.84
2023-05-23T20:56:01.837Z,46.49
2023-05-23T21:02:54.687Z,46.73
2023-05-23T21:06:01.629Z,46.97
2023-05-23T21:08:31.719Z,47.56
2023-05-23T21:14:26.785Z,47.82
2023-05-23T21:17:13.044Z,47.51
2023-05-23T21:19:50.583Z,47.79
2023-05-23T21:25:46.929Z,47.06
2023-05-23T21:31:40.292Z,46.99
2023-05-23T21:34:23.403Z,46.83
2023-05-23T21:36:54.132Z,47.00
2023-05-23T21:42:29.007Z,47.06
2023-05-23T21:45:09.035Z,47.37
2023-05-23T21:48:59.648Z,47.61
2023-05-23T22:05:58.637Z,46.74
2023-05-23T22:07:50.979Z,46.60
2023-05-23T22:10:44.099Z,46.87
2023-05-23T22:13:19.038Z,46.75
2023-05-23T22:16:39.524Z,46.53
2023-05-23T22:19:36.619Z,46.12
2023-05-23T22:28:41.885Z,45.51
2023-05-23T22:54:04.690Z,100.00
2023-05-23T22:56:36.193Z,100.00
2023-05-23T22:59:06.381Z,100.00
2023-05-23T23:01:45.142Z,100.00
2023-05-23T23:04:30.114Z,100.00
2023-05-23T23:07:03.307Z,100.00
2023-05-23T23:09:41.084Z,100.00
2023-05-23T23:12:13.097Z,100.00
2023-05-23T23:14:43.949Z,100.00
2023-05-23T23:19:57.254Z,100.00
2023-05-23T23:22:26.578Z,100.00
2023-05-23T23:24:58.818Z,100.00
2023-05-23T23:27:35.648Z,100.00
2023-05-23T23:30:07.501Z,100.00
2023-05-23T23:32:39.626Z,100.00
2023-05-23T23:35:21.061Z,100.00
2023-05-23T23:37:55.075Z,100.00
2023-05-23T23:40:42.022Z,100.00
2023-05-23T23:43:22.103Z,100.00
2023-05-23T23:45:51.304Z,100.00
2023-05-23T23:48:29.617Z,100.00
2023-05-23T23:51:13.550Z,100.00
2023-05-23T23:53:48.032Z,100.00
2023-05-23T23:56:27.317Z,100.00
2023-05-23T23:58:56.504Z,100.00
